Terminal Aerodrome Forecast
Issued by NWS Grand Rapids, MI

Home | Current Version | Previous Version | Text Only | Print | Product List | Glossary On
Versions: 1 2 3 4 5 6 7 8 9 10 11 12 13 14 15 16 17 18 19 20 21 22 23
809
FTUS43 KGRR 180234 AAC
TAFGRR
TAF AMD
KGRR 180234Z 1803/1824 14010KT P6SM -SHRA OVC025
     FM180500 21007KT 2SM -DZ BR OVC009
     FM181000 15005KT 1 1/2SM -DZ BR OVC003
     FM181400 01010KT 1 1/2SM -RA BR OVC003
     FM182200 34018G25KT 1 1/2SM -RASN BR OVC007=

USA.gov is the U.S. government's official web portal to all federal, state and local government web resources and services.